sensor_id;sensor_type;location;lat;lon;timestamp;P1;durP1;ratioP1;P2;durP2;ratioP2
38611;SDS011;24368;52.156;20.788;2023-03-01T00:00:12;52.50;;;35.30;;
38611;SDS011;24368;52.156;20.788;2023-03-01T00:05:35;59.40;;;37.80;;
38611;SDS011;24368;52.156;20.788;2023-03-01T00:10:36;61.60;;;39.00;;
38611;SDS011;24368;52.156;20.788;2023-03-01T00:15:39;56.00;;;36.70;;
38611;SDS011;24368;52.156;20.788;2023-03-01T00:20:48;55.70;;;35.60;;
38611;SDS011;24368;52.156;20.788;2023-03-01T00:25:51;49.10;;;34.40;;
38611;SDS011;24368;52.156;20.788;2023-03-01T00:30:54;50.70;;;33.10;;
38611;SDS011;24368;52.156;20.788;2023-03-01T00:35:57;51.30;;;34.00;;
38611;SDS011;24368;52.156;20.788;2023-03-01T00:41:04;55.50;;;37.60;;
38611;SDS011;24368;52.156;20.788;2023-03-01T00:46:08;53.70;;;36.20;;
38611;SDS011;24368;52.156;20.788;2023-03-01T00:51:13;57.80;;;37.30;;
38611;SDS011;24368;52.156;20.788;2023-03-01T00:56:20;48.90;;;33.60;;
38611;SDS011;24368;52.156;20.788;2023-03-01T01:01:24;54.80;;;34.90;;
38611;SDS011;24368;52.156;20.788;2023-03-01T01:06:29;48.50;;;31.30;;
38611;SDS011;24368;52.156;20.788;2023-03-01T01:11:33;44.40;;;29.90;;
38611;SDS011;24368;52.156;20.788;2023-03-01T01:16:37;55.90;;;35.20;;
38611;SDS011;24368;52.156;20.788;2023-03-01T01:21:39;48.10;;;31.20;;
38611;SDS011;24368;52.156;20.788;2023-03-01T01:26:44;47.30;;;31.10;;
38611;SDS011;24368;52.156;20.788;2023-03-01T01:31:47;40.90;;;27.40;;
38611;SDS011;24368;52.156;20.788;2023-03-01T01:36:50;42.60;;;29.40;;
38611;SDS011;24368;52.156;20.788;2023-03-01T01:41:54;44.70;;;29.10;;
38611;SDS011;24368;52.156;20.788;2023-03-01T01:46:57;49.20;;;30.70;;
38611;SDS011;24368;52.156;20.788;2023-03-01T01:57:14;46.40;;;29.60;;
38611;SDS011;24368;52.156;20.788;2023-03-01T02:02:21;44.90;;;28.20;;
38611;SDS011;24368;52.156;20.788;2023-03-01T02:07:23;44.00;;;26.30;;
38611;SDS011;24368;52.156;20.788;2023-03-01T02:12:26;31.00;;;20.40;;
38611;SDS011;24368;52.156;20.788;2023-03-01T02:17:28;43.10;;;27.40;;
38611;SDS011;24368;52.156;20.788;2023-03-01T02:22:30;44.00;;;28.90;;
38611;SDS011;24368;52.156;20.788;2023-03-01T02:27:38;50.70;;;33.10;;
38611;SDS011;24368;52.156;20.788;2023-03-01T02:32:49;47.30;;;30.10;;
38611;SDS011;24368;52.156;20.788;2023-03-01T02:37:53;42.20;;;28.40;;
38611;SDS011;24368;52.156;20.788;2023-03-01T02:42:58;44.70;;;29.80;;
38611;SDS011;24368;52.156;20.788;2023-03-01T02:48:00;45.90;;;28.90;;
38611;SDS011;24368;52.156;20.788;2023-03-01T02:58:14;49.80;;;32.40;;
38611;SDS011;24368;52.156;20.788;2023-03-01T03:03:17;48.10;;;30.50;;
38611;SDS011;24368;52.156;20.788;2023-03-01T03:08:20;46.50;;;28.90;;
38611;SDS011;24368;52.156;20.788;2023-03-01T03:13:25;46.30;;;29.70;;
38611;SDS011;24368;52.156;20.788;2023-03-01T03:18:29;47.00;;;30.60;;
38611;SDS011;24368;52.156;20.788;2023-03-01T03:23:31;39.60;;;26.80;;
38611;SDS011;24368;52.156;20.788;2023-03-01T03:28:33;40.90;;;27.90;;
38611;SDS011;24368;52.156;20.788;2023-03-01T03:33:36;48.50;;;31.80;;
38611;SDS011;24368;52.156;20.788;2023-03-01T03:38:38;45.10;;;27.50;;
38611;SDS011;24368;52.156;20.788;2023-03-01T03:43:41;45.90;;;27.10;;
38611;SDS011;24368;52.156;20.788;2023-03-01T03:48:45;46.70;;;28.80;;
38611;SDS011;24368;52.156;20.788;2023-03-01T03:53:47;41.30;;;27.80;;
38611;SDS011;24368;52.156;20.788;2023-03-01T03:58:49;50.00;;;30.80;;
38611;SDS011;24368;52.156;20.788;2023-03-01T04:03:51;42.30;;;27.50;;
38611;SDS011;24368;52.156;20.788;2023-03-01T04:08:55;43.80;;;27.00;;
38611;SDS011;24368;52.156;20.788;2023-03-01T04:14:00;47.90;;;29.80;;
38611;SDS011;24368;52.156;20.788;2023-03-01T04:19:02;47.00;;;27.80;;
38611;SDS011;24368;52.156;20.788;2023-03-01T04:24:04;42.40;;;27.30;;
38611;SDS011;24368;52.156;20.788;2023-03-01T04:29:06;46.10;;;28.70;;
38611;SDS011;24368;52.156;20.788;2023-03-01T04:34:08;39.40;;;25.50;;
38611;SDS011;24368;52.156;20.788;2023-03-01T04:39:10;47.00;;;27.80;;
38611;SDS011;24368;52.156;20.788;2023-03-01T04:44:13;42.40;;;26.60;;
38611;SDS011;24368;52.156;20.788;2023-03-01T04:49:15;40.70;;;24.40;;
38611;SDS011;24368;52.156;20.788;2023-03-01T04:54:17;51.80;;;31.10;;
38611;SDS011;24368;52.156;20.788;2023-03-01T04:59:19;43.20;;;26.50;;
38611;SDS011;24368;52.156;20.788;2023-03-01T05:04:23;38.50;;;26.90;;
38611;SDS011;24368;52.156;20.788;2023-03-01T05:09:26;51.80;;;31.60;;
38611;SDS011;24368;52.156;20.788;2023-03-01T05:14:27;42.30;;;26.20;;
38611;SDS011;24368;52.156;20.788;2023-03-01T05:19:30;45.90;;;30.30;;
38611;SDS011;24368;52.156;20.788;2023-03-01T05:24:33;43.70;;;29.20;;
38611;SDS011;24368;52.156;20.788;2023-03-01T05:29:36;39.10;;;24.80;;
38611;SDS011;24368;52.156;20.788;2023-03-01T05:34:40;32.80;;;24.20;;
38611;SDS011;24368;52.156;20.788;2023-03-01T05:39:43;40.30;;;25.20;;
38611;SDS011;24368;52.156;20.788;2023-03-01T05:44:45;33.10;;;23.00;;
38611;SDS011;24368;52.156;20.788;2023-03-01T05:49:46;36.60;;;25.20;;
38611;SDS011;24368;52.156;20.788;2023-03-01T05:54:50;43.20;;;26.90;;
38611;SDS011;24368;52.156;20.788;2023-03-01T05:59:52;32.30;;;22.70;;
38611;SDS011;24368;52.156;20.788;2023-03-01T06:04:54;40.90;;;27.60;;
38611;SDS011;24368;52.156;20.788;2023-03-01T06:09:57;37.20;;;25.60;;
38611;SDS011;24368;52.156;20.788;2023-03-01T06:14:58;35.40;;;24.90;;
38611;SDS011;24368;52.156;20.788;2023-03-01T06:20:01;43.50;;;27.70;;
38611;SDS011;24368;52.156;20.788;2023-03-01T06:25:03;41.80;;;26.60;;
38611;SDS011;24368;52.156;20.788;2023-03-01T06:30:06;38.20;;;27.20;;
38611;SDS011;24368;52.156;20.788;2023-03-01T06:35:10;42.30;;;27.70;;
38611;SDS011;24368;52.156;20.788;2023-03-01T06:40:13;38.40;;;24.90;;
38611;SDS011;24368;52.156;20.788;2023-03-01T06:45:17;37.90;;;25.80;;
38611;SDS011;24368;52.156;20.788;2023-03-01T06:50:20;51.80;;;33.90;;
38611;SDS011;24368;52.156;20.788;2023-03-01T06:55:21;42.50;;;25.50;;
38611;SDS011;24368;52.156;20.788;2023-03-01T07:00:24;39.10;;;27.10;;
38611;SDS011;24368;52.156;20.788;2023-03-01T07:05:26;37.00;;;25.10;;
38611;SDS011;24368;52.156;20.788;2023-03-01T07:10:28;42.40;;;28.10;;
38611;SDS011;24368;52.156;20.788;2023-03-01T07:15:30;43.70;;;30.00;;
38611;SDS011;24368;52.156;20.788;2023-03-01T07:20:32;40.20;;;27.30;;
38611;SDS011;24368;52.156;20.788;2023-03-01T07:25:34;35.80;;;25.60;;
38611;SDS011;24368;52.156;20.788;2023-03-01T07:30:36;37.80;;;25.10;;
38611;SDS011;24368;52.156;20.788;2023-03-01T07:35:37;38.10;;;25.90;;
38611;SDS011;24368;52.156;20.788;2023-03-01T07:40:39;40.90;;;26.30;;
38611;SDS011;24368;52.156;20.788;2023-03-01T07:45:41;38.10;;;26.80;;
38611;SDS011;24368;52.156;20.788;2023-03-01T07:50:43;43.30;;;28.50;;
38611;SDS011;24368;52.156;20.788;2023-03-01T07:55:44;36.30;;;26.50;;
38611;SDS011;24368;52.156;20.788;2023-03-01T08:00:46;38.00;;;25.80;;
38611;SDS011;24368;52.156;20.788;2023-03-01T08:05:48;33.00;;;23.30;;
38611;SDS011;24368;52.156;20.788;2023-03-01T08:10:50;37.60;;;25.50;;
38611;SDS011;24368;52.156;20.788;2023-03-01T08:15:52;37.30;;;25.00;;
38611;SDS011;24368;52.156;20.788;2023-03-01T08:20:54;33.70;;;21.30;;
38611;SDS011;24368;52.156;20.788;2023-03-01T08:26:02;36.40;;;24.80;;
38611;SDS011;24368;52.156;20.788;2023-03-01T08:31:14;34.70;;;24.80;;
38611;SDS011;24368;52.156;20.788;2023-03-01T08:36:16;38.10;;;25.40;;
38611;SDS011;24368;52.156;20.788;2023-03-01T08:41:19;35.20;;;24.50;;
38611;SDS011;24368;52.156;20.788;2023-03-01T08:46:22;37.50;;;25.20;;
38611;SDS011;24368;52.156;20.788;2023-03-01T08:51:24;33.10;;;21.90;;
38611;SDS011;24368;52.156;20.788;2023-03-01T08:56:26;30.90;;;22.20;;
38611;SDS011;24368;52.156;20.788;2023-03-01T09:01:28;34.20;;;23.50;;
38611;SDS011;24368;52.156;20.788;2023-03-01T09:06:31;35.80;;;25.10;;
38611;SDS011;24368;52.156;20.788;2023-03-01T09:11:37;33.40;;;24.20;;
38611;SDS011;24368;52.156;20.788;2023-03-01T09:16:38;39.00;;;25.30;;
38611;SDS011;24368;52.156;20.788;2023-03-01T09:21:41;30.70;;;21.60;;
38611;SDS011;24368;52.156;20.788;2023-03-01T09:26:54;33.10;;;23.80;;
38611;SDS011;24368;52.156;20.788;2023-03-01T09:31:57;33.20;;;23.60;;
38611;SDS011;24368;52.156;20.788;2023-03-01T09:36:59;32.10;;;23.70;;
38611;SDS011;24368;52.156;20.788;2023-03-01T09:42:03;32.70;;;24.00;;
38611;SDS011;24368;52.156;20.788;2023-03-01T09:47:09;24.80;;;17.70;;
38611;SDS011;24368;52.156;20.788;2023-03-01T09:57:54;27.50;;;19.60;;
38611;SDS011;24368;52.156;20.788;2023-03-01T10:14:03;28.70;;;20.10;;
38611;SDS011;24368;52.156;20.788;2023-03-01T10:19:11;25.20;;;18.40;;
38611;SDS011;24368;52.156;20.788;2023-03-01T10:24:18;25.10;;;16.90;;
38611;SDS011;24368;52.156;20.788;2023-03-01T10:29:24;30.30;;;20.90;;
38611;SDS011;24368;52.156;20.788;2023-03-01T10:34:33;27.50;;;19.80;;
38611;SDS011;24368;52.156;20.788;2023-03-01T10:39:36;25.30;;;18.80;;
38611;SDS011;24368;52.156;20.788;2023-03-01T10:44:55;24.60;;;18.10;;
38611;SDS011;24368;52.156;20.788;2023-03-01T10:49:58;22.90;;;17.00;;
38611;SDS011;24368;52.156;20.788;2023-03-01T11:00:28;21.00;;;14.40;;
38611;SDS011;24368;52.156;20.788;2023-03-01T11:05:32;17.30;;;12.00;;
38611;SDS011;24368;52.156;20.788;2023-03-01T11:10:35;18.10;;;13.60;;
38611;SDS011;24368;52.156;20.788;2023-03-01T11:15:38;18.00;;;12.90;;
38611;SDS011;24368;52.156;20.788;2023-03-01T11:20:40;17.40;;;13.20;;
38611;SDS011;24368;52.156;20.788;2023-03-01T11:25:43;22.00;;;14.50;;
38611;SDS011;24368;52.156;20.788;2023-03-01T11:30:53;18.60;;;14.40;;
38611;SDS011;24368;52.156;20.788;2023-03-01T11:36:01;19.40;;;15.50;;
38611;SDS011;24368;52.156;20.788;2023-03-01T11:41:13;23.40;;;14.60;;
38611;SDS011;24368;52.156;20.788;2023-03-01T11:56:55;18.20;;;13.80;;
38611;SDS011;24368;52.156;20.788;2023-03-01T12:18:29;16.00;;;14.30;;
38611;SDS011;24368;52.156;20.788;2023-03-01T12:39:42;15.40;;;13.20;;
38611;SDS011;24368;52.156;20.788;2023-03-01T13:00:41;16.30;;;13.80;;
38611;SDS011;24368;52.156;20.788;2023-03-01T13:06:04;13.40;;;12.00;;
38611;SDS011;24368;52.156;20.788;2023-03-01T13:11:18;17.30;;;15.30;;
38611;SDS011;24368;52.156;20.788;2023-03-01T13:21:30;15.90;;;14.20;;
38611;SDS011;24368;52.156;20.788;2023-03-01T13:26:35;15.60;;;14.20;;
38611;SDS011;24368;52.156;20.788;2023-03-01T13:32:34;17.20;;;15.30;;
38611;SDS011;24368;52.156;20.788;2023-03-01T13:37:41;15.50;;;12.70;;
38611;SDS011;24368;52.156;20.788;2023-03-01T13:42:44;14.70;;;13.20;;
38611;SDS011;24368;52.156;20.788;2023-03-01T13:47:52;15.20;;;13.70;;
38611;SDS011;24368;52.156;20.788;2023-03-01T13:53:02;19.10;;;16.20;;
38611;SDS011;24368;52.156;20.788;2023-03-01T14:03:22;15.20;;;13.60;;
38611;SDS011;24368;52.156;20.788;2023-03-01T14:08:25;16.30;;;14.40;;
38611;SDS011;24368;52.156;20.788;2023-03-01T14:19:14;19.10;;;15.80;;
38611;SDS011;24368;52.156;20.788;2023-03-01T14:24:26;16.70;;;12.40;;
38611;SDS011;24368;52.156;20.788;2023-03-01T14:29:36;14.50;;;12.60;;
38611;SDS011;24368;52.156;20.788;2023-03-01T14:34:42;17.90;;;14.00;;
38611;SDS011;24368;52.156;20.788;2023-03-01T14:39:46;21.10;;;15.50;;
38611;SDS011;24368;52.156;20.788;2023-03-01T14:44:52;14.40;;;12.20;;
38611;SDS011;24368;52.156;20.788;2023-03-01T14:50:14;18.80;;;13.50;;
38611;SDS011;24368;52.156;20.788;2023-03-01T14:55:28;13.90;;;12.30;;
38611;SDS011;24368;52.156;20.788;2023-03-01T15:00:33;15.90;;;12.50;;
38611;SDS011;24368;52.156;20.788;2023-03-01T15:05:36;14.40;;;11.50;;
38611;SDS011;24368;52.156;20.788;2023-03-01T15:10:40;17.40;;;12.50;;
38611;SDS011;24368;52.156;20.788;2023-03-01T15:15:45;14.50;;;11.90;;
38611;SDS011;24368;52.156;20.788;2023-03-01T15:20:48;15.90;;;13.20;;
38611;SDS011;24368;52.156;20.788;2023-03-01T15:25:52;15.20;;;11.20;;
38611;SDS011;24368;52.156;20.788;2023-03-01T15:31:00;12.50;;;10.00;;
38611;SDS011;24368;52.156;20.788;2023-03-01T15:41:47;13.00;;;11.10;;
38611;SDS011;24368;52.156;20.788;2023-03-01T15:46:50;15.60;;;12.00;;
38611;SDS011;24368;52.156;20.788;2023-03-01T15:51:53;17.60;;;12.30;;
38611;SDS011;24368;52.156;20.788;2023-03-01T15:56:56;14.40;;;11.30;;
38611;SDS011;24368;52.156;20.788;2023-03-01T16:01:58;16.10;;;11.80;;
38611;SDS011;24368;52.156;20.788;2023-03-01T16:07:00;15.50;;;10.50;;
38611;SDS011;24368;52.156;20.788;2023-03-01T16:12:02;17.00;;;12.20;;
38611;SDS011;24368;52.156;20.788;2023-03-01T16:17:04;15.90;;;12.40;;
38611;SDS011;24368;52.156;20.788;2023-03-01T16:22:07;20.10;;;14.00;;
38611;SDS011;24368;52.156;20.788;2023-03-01T16:27:11;18.20;;;13.80;;
38611;SDS011;24368;52.156;20.788;2023-03-01T16:32:13;18.50;;;15.50;;
38611;SDS011;24368;52.156;20.788;2023-03-01T16:37:15;20.50;;;13.70;;
38611;SDS011;24368;52.156;20.788;2023-03-01T16:42:17;18.00;;;13.90;;
38611;SDS011;24368;52.156;20.788;2023-03-01T16:47:19;15.60;;;11.80;;
38611;SDS011;24368;52.156;20.788;2023-03-01T16:52:21;13.60;;;11.20;;
38611;SDS011;24368;52.156;20.788;2023-03-01T16:57:24;19.30;;;12.80;;
38611;SDS011;24368;52.156;20.788;2023-03-01T17:02:25;18.50;;;13.70;;
38611;SDS011;24368;52.156;20.788;2023-03-01T17:07:32;17.30;;;13.90;;
38611;SDS011;24368;52.156;20.788;2023-03-01T17:12:37;21.10;;;14.00;;
38611;SDS011;24368;52.156;20.788;2023-03-01T17:17:39;19.80;;;14.30;;
38611;SDS011;24368;52.156;20.788;2023-03-01T17:22:41;19.80;;;16.30;;
38611;SDS011;24368;52.156;20.788;2023-03-01T17:27:43;23.90;;;17.60;;
38611;SDS011;24368;52.156;20.788;2023-03-01T17:32:45;27.40;;;18.60;;
38611;SDS011;24368;52.156;20.788;2023-03-01T17:37:46;33.20;;;22.70;;
38611;SDS011;24368;52.156;20.788;2023-03-01T17:42:48;28.40;;;20.40;;
38611;SDS011;24368;52.156;20.788;2023-03-01T17:47:50;30.60;;;19.60;;
38611;SDS011;24368;52.156;20.788;2023-03-01T17:52:52;44.30;;;31.30;;
38611;SDS011;24368;52.156;20.788;2023-03-01T17:57:54;32.20;;;23.00;;
38611;SDS011;24368;52.156;20.788;2023-03-01T18:02:56;29.10;;;22.70;;
38611;SDS011;24368;52.156;20.788;2023-03-01T18:07:58;34.90;;;24.80;;
38611;SDS011;24368;52.156;20.788;2023-03-01T18:12:59;41.30;;;26.70;;
38611;SDS011;24368;52.156;20.788;2023-03-01T18:18:01;43.10;;;30.00;;
38611;SDS011;24368;52.156;20.788;2023-03-01T18:23:03;45.50;;;32.60;;
38611;SDS011;24368;52.156;20.788;2023-03-01T18:28:07;51.00;;;36.30;;
38611;SDS011;24368;52.156;20.788;2023-03-01T18:33:09;50.20;;;35.10;;
38611;SDS011;24368;52.156;20.788;2023-03-01T18:38:12;52.20;;;34.50;;
38611;SDS011;24368;52.156;20.788;2023-03-01T18:43:14;57.90;;;38.10;;
38611;SDS011;24368;52.156;20.788;2023-03-01T18:48:15;50.50;;;36.40;;
38611;SDS011;24368;52.156;20.788;2023-03-01T18:53:17;48.00;;;34.30;;
38611;SDS011;24368;52.156;20.788;2023-03-01T18:58:20;45.20;;;33.80;;
38611;SDS011;24368;52.156;20.788;2023-03-01T19:03:21;46.50;;;32.10;;
38611;SDS011;24368;52.156;20.788;2023-03-01T19:08:24;45.60;;;31.10;;
38611;SDS011;24368;52.156;20.788;2023-03-01T19:13:26;50.90;;;32.40;;
38611;SDS011;24368;52.156;20.788;2023-03-01T19:18:28;46.70;;;33.10;;
38611;SDS011;24368;52.156;20.788;2023-03-01T19:23:30;47.70;;;33.10;;
38611;SDS011;24368;52.156;20.788;2023-03-01T19:28:35;45.40;;;31.80;;
38611;SDS011;24368;52.156;20.788;2023-03-01T19:33:38;52.40;;;36.20;;
38611;SDS011;24368;52.156;20.788;2023-03-01T19:38:40;51.70;;;36.80;;
38611;SDS011;24368;52.156;20.788;2023-03-01T19:43:44;54.80;;;37.40;;
38611;SDS011;24368;52.156;20.788;2023-03-01T19:48:47;51.50;;;37.90;;
38611;SDS011;24368;52.156;20.788;2023-03-01T19:53:49;49.40;;;34.60;;
38611;SDS011;24368;52.156;20.788;2023-03-01T19:58:51;49.70;;;34.50;;
38611;SDS011;24368;52.156;20.788;2023-03-01T20:04:00;49.70;;;37.00;;
38611;SDS011;24368;52.156;20.788;2023-03-01T20:09:04;46.50;;;34.00;;
38611;SDS011;24368;52.156;20.788;2023-03-01T20:14:10;47.00;;;33.80;;
38611;SDS011;24368;52.156;20.788;2023-03-01T20:19:13;51.00;;;36.20;;
38611;SDS011;24368;52.156;20.788;2023-03-01T20:24:15;45.80;;;33.90;;
38611;SDS011;24368;52.156;20.788;2023-03-01T20:29:17;55.30;;;37.10;;
38611;SDS011;24368;52.156;20.788;2023-03-01T20:34:18;54.90;;;37.80;;
38611;SDS011;24368;52.156;20.788;2023-03-01T20:39:20;60.40;;;39.60;;
38611;SDS011;24368;52.156;20.788;2023-03-01T20:44:22;58.80;;;39.10;;
38611;SDS011;24368;52.156;20.788;2023-03-01T20:49:24;57.60;;;38.70;;
38611;SDS011;24368;52.156;20.788;2023-03-01T20:54:26;56.00;;;35.60;;
38611;SDS011;24368;52.156;20.788;2023-03-01T20:59:28;49.40;;;35.40;;
38611;SDS011;24368;52.156;20.788;2023-03-01T21:04:30;43.40;;;31.60;;
38611;SDS011;24368;52.156;20.788;2023-03-01T21:09:32;50.70;;;35.80;;
38611;SDS011;24368;52.156;20.788;2023-03-01T21:14:34;51.10;;;34.10;;
38611;SDS011;24368;52.156;20.788;2023-03-01T21:19:43;52.20;;;34.10;;
38611;SDS011;24368;52.156;20.788;2023-03-01T21:24:45;46.00;;;34.60;;
38611;SDS011;24368;52.156;20.788;2023-03-01T21:29:48;52.90;;;35.40;;
38611;SDS011;24368;52.156;20.788;2023-03-01T21:34:50;71.50;;;46.70;;
38611;SDS011;24368;52.156;20.788;2023-03-01T21:39:51;62.40;;;41.20;;
38611;SDS011;24368;52.156;20.788;2023-03-01T21:44:53;57.50;;;39.20;;
38611;SDS011;24368;52.156;20.788;2023-03-01T21:49:55;58.70;;;40.30;;
38611;SDS011;24368;52.156;20.788;2023-03-01T21:54:57;62.60;;;40.80;;
38611;SDS011;24368;52.156;20.788;2023-03-01T22:00:02;56.20;;;39.60;;
38611;SDS011;24368;52.156;20.788;2023-03-01T22:05:04;56.00;;;40.50;;
38611;SDS011;24368;52.156;20.788;2023-03-01T22:10:07;52.90;;;38.30;;
38611;SDS011;24368;52.156;20.788;2023-03-01T22:15:10;51.30;;;35.70;;
38611;SDS011;24368;52.156;20.788;2023-03-01T22:20:12;51.80;;;36.70;;
38611;SDS011;24368;52.156;20.788;2023-03-01T22:25:14;54.00;;;37.80;;
38611;SDS011;24368;52.156;20.788;2023-03-01T22:30:15;52.80;;;35.60;;
38611;SDS011;24368;52.156;20.788;2023-03-01T22:35:17;49.50;;;35.00;;
38611;SDS011;24368;52.156;20.788;2023-03-01T22:40:19;55.80;;;37.60;;
38611;SDS011;24368;52.156;20.788;2023-03-01T22:45:21;51.30;;;36.70;;
38611;SDS011;24368;52.156;20.788;2023-03-01T22:50:23;51.80;;;35.80;;
38611;SDS011;24368;52.156;20.788;2023-03-01T22:55:26;62.00;;;41.00;;
38611;SDS011;24368;52.156;20.788;2023-03-01T23:00:28;52.50;;;37.30;;
38611;SDS011;24368;52.156;20.788;2023-03-01T23:05:30;56.00;;;38.10;;
38611;SDS011;24368;52.156;20.788;2023-03-01T23:10:31;56.90;;;39.40;;
38611;SDS011;24368;52.156;20.788;2023-03-01T23:15:33;59.10;;;41.50;;
38611;SDS011;24368;52.156;20.788;2023-03-01T23:20:35;62.00;;;40.40;;
38611;SDS011;24368;52.156;20.788;2023-03-01T23:25:37;53.40;;;38.60;;
38611;SDS011;24368;52.156;20.788;2023-03-01T23:30:39;60.30;;;40.90;;
38611;SDS011;24368;52.156;20.788;2023-03-01T23:35:40;62.00;;;43.80;;
38611;SDS011;24368;52.156;20.788;2023-03-01T23:40:42;69.10;;;45.40;;
38611;SDS011;24368;52.156;20.788;2023-03-01T23:45:44;64.20;;;44.80;;
38611;SDS011;24368;52.156;20.788;2023-03-01T23:50:46;53.60;;;37.70;;
38611;SDS011;24368;52.156;20.788;2023-03-01T23:55:50;60.10;;;40.60;;
